Blackland, Mississippi
Current Conditions -  °F | °C
As of 2:55 PM on Friday 19 Dec 2014 (Local Time) from KCRX Reporting Station
Overcast Overcast  
Wind Chill: 39°   Ceiling: 4000
Heat Index: 43°   Visibility: 10mi
Dew Point: 32°   Wind: 6mph
Humidity: 66%   Direction: 10°N
Pressure: 30.2"   Gusts: NA
Location:  34.6741°N, 88.5234°W
Report Text: KCRX 192055Z AUTO 01005KT 10SM OVC040 06/00 A3020 RMK AO2
Loading
Personal Weather Stations






























Interactive Weather Map New forecast layout! Learn more

10-Day Weather Forecast

Advertisements
Track Severe Weather on mobile